Dinsdale, Iowa
Current Conditions -  °F | °C
As of 6:54 PM on Wednesday 22 Oct 2014 (Local Time) from KALO Reporting Station
Overcast Overcast  
Wind Chill: 57°   Ceiling: 7000
Heat Index: 57°   Visibility: 10mi
Dew Point: 40°   Wind: 14mph
Humidity: 53%   Direction: 150°SSE
Pressure: 30.15"   Gusts: NA
Location:  42.2885°N, 92.5843°W
Report Text: KALO 222354Z 15012KT 10SM SCT042 BKN070 OVC090 14/04 A3015 RMK AO2 SLP214 T01390044 10161 20139 55006
Loading
Personal Weather Stations






























Interactive Weather Map
Tropical Storm Tracking
New forecast layout! Learn more

10-Day Weather Forecast

Advertisements
Track Severe Weather on mobile